createdAt,value
2018-11-26T00:02:13.144Z,44.10
2018-11-26T00:04:42.856Z,45.17
2018-11-26T00:07:13.924Z,45.90
2018-11-26T00:09:43.962Z,42.48
2018-11-26T00:12:13.923Z,42.27
2018-11-26T00:14:44.128Z,46.00
2018-11-26T00:17:14.444Z,47.25
2018-11-26T00:19:44.264Z,46.40
2018-11-26T00:22:14.813Z,48.16
2018-11-26T00:24:44.388Z,44.70
2018-11-26T00:27:14.133Z,44.13
2018-11-26T00:29:43.707Z,41.83
2018-11-26T00:32:13.428Z,40.90
2018-11-26T00:34:43.116Z,40.80
2018-11-26T00:37:12.780Z,42.50
2018-11-26T00:39:42.393Z,40.33
2018-11-26T00:42:11.999Z,40.95
2018-11-26T00:44:41.814Z,43.77
2018-11-26T00:47:11.686Z,41.08
2018-11-26T00:49:41.559Z,41.93
2018-11-26T00:52:11.314Z,42.27
2018-11-26T00:54:41.274Z,39.95
2018-11-26T00:57:11.182Z,43.33
2018-11-26T00:59:40.771Z,42.70
2018-11-26T01:02:11.870Z,41.60
2018-11-26T01:04:42.158Z,41.40
2018-11-26T01:07:12.093Z,40.23
2018-11-26T01:09:41.913Z,39.37
2018-11-26T01:12:11.612Z,38.80
2018-11-26T01:14:41.463Z,42.40
2018-11-26T01:17:12.097Z,41.53
2018-11-26T01:19:42.853Z,37.27
2018-11-26T01:22:12.628Z,41.57
2018-11-26T01:24:42.716Z,40.20
2018-11-26T01:27:12.349Z,38.93
2018-11-26T01:29:42.151Z,37.23
2018-11-26T01:32:11.778Z,36.93
2018-11-26T01:34:41.499Z,39.13
2018-11-26T01:37:11.199Z,37.33
2018-11-26T01:39:41.148Z,35.50
2018-11-26T01:42:10.753Z,36.73
2018-11-26T01:44:40.473Z,36.42
2018-11-26T01:47:10.082Z,38.33
2018-11-26T01:49:39.808Z,40.30
2018-11-26T01:52:09.417Z,38.73
2018-11-26T01:54:39.159Z,38.98
2018-11-26T01:57:08.951Z,39.48
2018-11-26T01:59:38.764Z,36.50
2018-11-26T02:02:08.468Z,34.23
2018-11-26T02:04:38.005Z,41.65
2018-11-26T02:07:07.793Z,37.70
2018-11-26T02:09:37.493Z,38.70
2018-11-26T02:12:07.888Z,37.75
2018-11-26T02:14:37.459Z,35.40
2018-11-26T02:17:07.578Z,40.17
2018-11-26T02:19:37.225Z,34.97
2018-11-26T02:22:07.033Z,38.23
2018-11-26T02:24:36.563Z,38.00
2018-11-26T02:27:06.887Z,35.38
2018-11-26T02:29:36.445Z,37.73
2018-11-26T02:32:06.350Z,37.53
2018-11-26T02:34:35.885Z,40.00
2018-11-26T02:37:05.513Z,35.80
2018-11-26T02:39:35.220Z,38.60
2018-11-26T02:42:04.791Z,36.20
2018-11-26T02:44:34.370Z,36.00
2018-11-26T02:47:03.838Z,40.73
2018-11-26T02:49:33.583Z,35.08
2018-11-26T02:52:03.200Z,35.13
2018-11-26T02:54:32.772Z,37.80
2018-11-26T02:57:02.601Z,38.40
2018-11-26T02:59:32.320Z,36.50
2018-11-26T03:02:02.052Z,34.97
2018-11-26T03:04:31.735Z,37.47
2018-11-26T03:07:01.330Z,38.58
2018-11-26T03:09:31.029Z,35.03
2018-11-26T03:12:00.568Z,36.40
2018-11-26T03:14:30.053Z,34.43
2018-11-26T03:16:59.785Z,40.63
2018-11-26T03:19:29.444Z,37.83
2018-11-26T03:21:59.243Z,39.27
2018-11-26T03:24:28.955Z,47.90
2018-11-26T03:26:58.596Z,38.80
2018-11-26T03:29:28.286Z,37.00
2018-11-26T03:31:57.991Z,39.63
2018-11-26T03:34:27.611Z,40.50
2018-11-26T03:36:57.338Z,38.10
2018-11-26T03:39:27.019Z,38.50
2018-11-26T03:41:56.751Z,42.10
2018-11-26T03:44:26.355Z,36.50
2018-11-26T03:46:55.849Z,39.30
2018-11-26T03:49:25.392Z,38.27
2018-11-26T03:51:55.140Z,39.07
2018-11-26T03:54:24.864Z,38.10
2018-11-26T03:56:54.499Z,38.97
2018-11-26T03:59:24.241Z,38.60
2018-11-26T04:01:53.814Z,39.40
2018-11-26T04:04:23.524Z,36.13
2018-11-26T04:06:53.173Z,39.73
2018-11-26T04:09:22.759Z,46.57
2018-11-26T04:11:52.426Z,42.70
2018-11-26T04:14:22.079Z,38.80
2018-11-26T04:16:51.868Z,36.93
2018-11-26T04:19:21.456Z,39.13
2018-11-26T04:21:51.278Z,39.98
2018-11-26T04:24:20.923Z,37.87
2018-11-26T04:26:50.420Z,39.57
2018-11-26T04:29:20.419Z,37.63
2018-11-26T04:31:50.936Z,37.75
2018-11-26T04:34:21.803Z,39.03
2018-11-26T04:36:51.500Z,41.30
2018-11-26T04:39:21.225Z,39.87
2018-11-26T04:41:50.902Z,40.23
2018-11-26T04:44:20.412Z,40.57
2018-11-26T04:46:53.303Z,39.43
2018-11-26T04:49:23.825Z,38.10
2018-11-26T04:51:53.584Z,38.70
2018-11-26T04:54:23.094Z,42.47
2018-11-26T04:56:52.734Z,40.20
2018-11-26T04:59:22.315Z,38.23
2018-11-26T05:01:51.909Z,38.53
2018-11-26T05:04:21.489Z,37.95
2018-11-26T05:06:51.135Z,43.40
2018-11-26T05:09:20.700Z,35.92
2018-11-26T05:11:50.364Z,40.90
2018-11-26T05:14:19.986Z,39.78
2018-11-26T05:16:49.653Z,39.50
2018-11-26T05:19:19.354Z,40.43
2018-11-26T05:21:49.096Z,39.50
2018-11-26T05:24:18.748Z,37.97
2018-11-26T05:26:48.501Z,38.47
2018-11-26T05:29:19.110Z,39.03
2018-11-26T05:31:49.846Z,39.10
2018-11-26T05:34:19.576Z,37.83
2018-11-26T05:36:49.169Z,38.47
2018-11-26T05:39:18.907Z,37.27
2018-11-26T05:41:48.526Z,38.47
2018-11-26T05:44:18.159Z,38.73
2018-11-26T05:46:48.005Z,35.60
2018-11-26T05:49:17.711Z,39.60
2018-11-26T05:51:47.492Z,39.53
2018-11-26T05:54:17.075Z,36.97
2018-11-26T05:56:46.886Z,39.93
2018-11-26T05:59:16.500Z,40.52
2018-11-26T06:01:46.229Z,42.03
2018-11-26T06:04:15.828Z,38.77
2018-11-26T06:06:45.758Z,36.97
2018-11-26T06:09:15.426Z,35.10
2018-11-26T06:11:45.230Z,39.70
2018-11-26T06:14:14.928Z,39.88
2018-11-26T06:16:45.801Z,38.70
2018-11-26T06:19:14.664Z,40.53
2018-11-26T06:21:44.364Z,45.13
2018-11-26T06:24:14.056Z,41.80
2018-11-26T06:26:43.816Z,39.70
2018-11-26T06:29:13.539Z,35.30
2018-11-26T06:31:43.190Z,41.75
2018-11-26T06:34:12.931Z,45.90
2018-11-26T06:36:42.619Z,45.47
2018-11-26T06:39:12.196Z,51.63
2018-11-26T06:41:41.830Z,48.43
2018-11-26T06:44:11.682Z,43.20
2018-11-26T06:46:48.045Z,44.60
2018-11-26T06:49:17.657Z,44.18
2018-11-26T06:51:47.350Z,44.87
2018-11-26T06:54:17.011Z,39.75
2018-11-26T06:56:46.525Z,36.30
2018-11-26T06:59:16.148Z,34.93
2018-11-26T07:01:45.881Z,36.35
2018-11-26T07:04:15.440Z,36.97
2018-11-26T07:06:45.110Z,39.23
2018-11-26T07:09:15.839Z,37.53
2018-11-26T07:11:46.664Z,37.80
2018-11-26T07:14:16.301Z,39.70
2018-11-26T07:16:46.076Z,39.30
2018-11-26T07:19:15.616Z,45.70
2018-11-26T07:21:45.196Z,36.63
2018-11-26T07:24:14.843Z,40.43
2018-11-26T07:26:44.424Z,38.20
2018-11-26T07:29:14.150Z,36.87
2018-11-26T07:31:43.709Z,37.77
2018-11-26T07:34:13.419Z,38.63
2018-11-26T07:36:43.120Z,41.90
2018-11-26T07:39:12.799Z,37.53
2018-11-26T07:41:42.646Z,39.73
2018-11-26T07:44:12.510Z,36.27
2018-11-26T07:46:42.202Z,40.33
2018-11-26T07:49:11.882Z,40.47
2018-11-26T07:51:41.757Z,39.78
2018-11-26T07:54:11.425Z,41.15
2018-11-26T07:56:41.064Z,38.67
2018-11-26T07:59:11.883Z,40.10
2018-11-26T08:01:41.586Z,44.37
2018-11-26T08:04:11.200Z,40.77
2018-11-26T08:06:40.825Z,42.03
2018-11-26T08:09:10.701Z,40.23
2018-11-26T08:11:40.270Z,38.93
2018-11-26T08:14:09.891Z,41.43
2018-11-26T08:16:39.728Z,41.57
2018-11-26T08:19:09.497Z,40.52
2018-11-26T08:21:39.230Z,38.20
2018-11-26T08:24:08.981Z,38.17
2018-11-26T08:26:38.610Z,36.13
2018-11-26T08:29:08.394Z,38.20
2018-11-26T08:31:38.101Z,37.93
2018-11-26T08:34:07.756Z,37.28
2018-11-26T08:36:42.499Z,35.60
2018-11-26T08:39:18.687Z,35.30
2018-11-26T08:41:53.781Z,39.38
2018-11-26T08:44:28.881Z,38.70
2018-11-26T08:47:03.932Z,38.33
2018-11-26T08:49:33.646Z,39.13
2018-11-26T08:52:03.317Z,39.90
2018-11-26T08:54:33.135Z,37.90
2018-11-26T08:57:02.722Z,39.87
2018-11-26T08:59:32.596Z,40.17
2018-11-26T09:02:02.368Z,38.93
2018-11-26T09:04:34.398Z,36.43
2018-11-26T09:07:04.177Z,41.70
2018-11-26T09:09:34.092Z,41.10
2018-11-26T09:12:03.951Z,40.63
2018-11-26T09:14:33.939Z,41.65
2018-11-26T09:17:03.676Z,38.78
2018-11-26T09:19:33.347Z,40.67
2018-11-26T09:22:03.075Z,41.27
2018-11-26T09:24:32.762Z,40.20
2018-11-26T09:27:09.567Z,48.40
2018-11-26T09:29:32.172Z,42.30
2018-11-26T09:32:02.079Z,42.80
2018-11-26T09:34:32.011Z,46.33
2018-11-26T09:37:01.646Z,44.63
2018-11-26T09:39:31.294Z,41.40
2018-11-26T09:42:01.107Z,44.42
2018-11-26T09:44:31.082Z,44.80
2018-11-26T09:47:01.183Z,42.73
2018-11-26T09:49:30.906Z,43.00
2018-11-26T09:52:00.766Z,41.37
2018-11-26T09:54:31.179Z,42.80
2018-11-26T09:57:01.341Z,44.97
2018-11-26T09:59:30.942Z,42.53
2018-11-26T10:02:00.852Z,42.90
2018-11-26T10:04:30.789Z,44.07
2018-11-26T10:07:00.488Z,45.08
2018-11-26T10:09:30.090Z,44.67
2018-11-26T10:11:59.882Z,45.27
2018-11-26T10:14:29.636Z,43.03
2018-11-26T10:16:59.419Z,42.15
2018-11-26T10:19:29.250Z,43.83
2018-11-26T10:21:58.921Z,43.55
2018-11-26T10:24:28.880Z,47.90
2018-11-26T10:26:58.786Z,46.67
2018-11-26T10:29:28.657Z,52.57
2018-11-26T10:31:58.320Z,47.53
2018-11-26T10:34:27.984Z,51.00
2018-11-26T10:36:58.786Z,49.23
2018-11-26T10:39:29.384Z,49.05
2018-11-26T10:41:59.096Z,52.77
2018-11-26T10:44:28.869Z,50.50
2018-11-26T10:46:58.590Z,47.10
2018-11-26T10:49:28.524Z,54.83
2018-11-26T10:51:58.350Z,50.20
2018-11-26T10:54:28.057Z,53.80
2018-11-26T10:56:57.851Z,51.37
2018-11-26T10:59:27.568Z,52.67
2018-11-26T11:02:06.510Z,48.60
2018-11-26T11:04:36.369Z,51.23
2018-11-26T11:07:06.352Z,56.90
2018-11-26T11:09:36.103Z,52.53
2018-11-26T11:12:05.907Z,56.23
2018-11-26T11:14:35.648Z,54.95
2018-11-26T11:17:05.596Z,58.03
2018-11-26T11:19:35.372Z,52.90
2018-11-26T11:22:05.540Z,54.65
2018-11-26T11:24:35.775Z,54.67
2018-11-26T11:27:05.562Z,52.30
2018-11-26T11:29:35.541Z,64.25
2018-11-26T11:32:05.343Z,55.03
2018-11-26T11:34:35.144Z,58.83
2018-11-26T11:37:05.135Z,56.47
2018-11-26T11:39:34.905Z,53.03
2018-11-26T11:42:04.538Z,59.75
2018-11-26T11:44:34.345Z,55.83
2018-11-26T11:47:04.063Z,52.30
2018-11-26T11:49:33.783Z,53.53
2018-11-26T11:52:04.084Z,52.83
2018-11-26T11:54:33.949Z,52.47
2018-11-26T11:57:03.613Z,55.97
2018-11-26T11:59:33.424Z,51.17
2018-11-26T12:02:03.425Z,51.67
2018-11-26T12:04:33.174Z,45.67
2018-11-26T12:07:02.875Z,46.80
2018-11-26T12:09:32.530Z,53.27
2018-11-26T12:12:02.482Z,49.07
2018-11-26T12:14:32.362Z,47.13
2018-11-26T12:17:02.286Z,42.08
2018-11-26T12:19:31.855Z,49.73
2018-11-26T12:22:01.519Z,47.83
2018-11-26T12:24:31.390Z,49.27
2018-11-26T12:27:01.215Z,56.83
2018-11-26T12:29:31.299Z,56.57
2018-11-26T12:32:01.332Z,59.53
2018-11-26T12:34:31.154Z,64.87
2018-11-26T12:37:01.006Z,57.03
2018-11-26T12:39:31.918Z,56.83
2018-11-26T12:42:04.184Z,57.53
2018-11-26T12:44:50.500Z,50.37
2018-11-26T12:47:20.315Z,49.80
2018-11-26T12:49:50.148Z,52.67
2018-11-26T12:52:20.079Z,51.35
2018-11-26T12:54:49.864Z,48.57
2018-11-26T12:57:19.607Z,46.90
2018-11-26T12:59:49.470Z,52.73
2018-11-26T13:02:19.487Z,52.77
2018-11-26T13:04:49.274Z,49.13
2018-11-26T13:07:19.142Z,53.38
2018-11-26T13:09:48.911Z,51.53
2018-11-26T13:12:18.669Z,62.27
2018-11-26T13:14:49.159Z,48.58
2018-11-26T13:17:18.950Z,47.80
2018-11-26T13:19:48.794Z,49.17
2018-11-26T13:22:18.632Z,50.63
2018-11-26T13:24:48.657Z,44.67
2018-11-26T13:27:18.637Z,50.37
2018-11-26T13:29:48.431Z,45.70
2018-11-26T13:32:18.231Z,50.67
2018-11-26T13:34:48.044Z,44.90
2018-11-26T13:37:17.978Z,47.27
2018-11-26T13:39:47.722Z,43.95
2018-11-26T13:42:17.630Z,46.03
2018-11-26T13:44:47.585Z,45.52
2018-11-26T13:47:17.518Z,42.17
2018-11-26T13:49:47.360Z,42.60
2018-11-26T13:52:17.177Z,100.92
2018-11-26T13:54:47.069Z,69.80
2018-11-26T13:57:16.867Z,53.53
2018-11-26T13:59:46.834Z,49.57
2018-11-26T14:02:20.364Z,53.57
2018-11-26T14:04:50.426Z,52.40
2018-11-26T14:07:20.440Z,55.10
2018-11-26T14:09:50.257Z,50.87
2018-11-26T14:12:20.805Z,50.40
2018-11-26T14:14:51.734Z,51.63
2018-11-26T14:17:21.552Z,55.17
2018-11-26T14:19:52.356Z,56.03
2018-11-26T14:22:23.193Z,58.90
2018-11-26T14:24:52.983Z,56.70
2018-11-26T14:27:23.049Z,54.45
2018-11-26T14:29:53.211Z,59.48
2018-11-26T14:32:23.067Z,56.63
2018-11-26T14:34:52.957Z,55.20
2018-11-26T14:37:22.912Z,57.33
2018-11-26T14:39:52.803Z,55.37
2018-11-26T14:42:22.819Z,52.30
2018-11-26T14:44:52.719Z,55.23
2018-11-26T14:47:22.661Z,59.30
2018-11-26T14:49:55.540Z,51.23
2018-11-26T14:52:25.685Z,54.73
2018-11-26T14:54:55.448Z,50.97
2018-11-26T14:57:25.266Z,51.57
2018-11-26T14:59:55.386Z,54.63
2018-11-26T15:02:25.273Z,58.90
2018-11-26T15:04:55.206Z,52.80
2018-11-26T15:07:25.166Z,54.65
2018-11-26T15:09:55.215Z,55.33
2018-11-26T15:12:25.106Z,50.00
2018-11-26T15:14:54.971Z,45.92
2018-11-26T15:17:24.826Z,44.88
2018-11-26T15:19:55.027Z,48.90
2018-11-26T15:22:24.823Z,46.23
2018-11-26T15:24:54.559Z,49.25
2018-11-26T15:27:25.337Z,49.85
2018-11-26T15:29:56.328Z,46.70
2018-11-26T15:32:26.289Z,50.98
2018-11-26T15:34:56.202Z,44.50
2018-11-26T15:37:26.099Z,54.37
2018-11-26T15:39:57.445Z,48.83
2018-11-26T15:42:27.368Z,48.70
2018-11-26T15:44:57.228Z,48.80
2018-11-26T15:47:27.123Z,50.13
2018-11-26T15:49:57.028Z,48.33
2018-11-26T15:52:26.916Z,69.33
2018-11-26T15:54:56.878Z,67.27
2018-11-26T15:57:27.170Z,51.70
2018-11-26T15:59:57.024Z,50.73
2018-11-26T16:02:27.034Z,50.27
2018-11-26T16:04:57.028Z,49.13
2018-11-26T16:07:26.943Z,48.53
2018-11-26T16:09:57.016Z,50.33
2018-11-26T16:12:27.065Z,51.50
2018-11-26T16:14:57.069Z,47.97
2018-11-26T16:17:27.064Z,50.88
2018-11-26T16:19:56.999Z,49.00
2018-11-26T16:22:27.150Z,48.48
2018-11-26T16:24:57.294Z,51.03
2018-11-26T16:27:27.350Z,44.40
2018-11-26T16:29:57.247Z,69.20
2018-11-26T16:32:27.277Z,57.03
2018-11-26T16:34:57.551Z,48.23
2018-11-26T16:37:27.557Z,50.00
2018-11-26T16:39:57.531Z,45.60
2018-11-26T16:42:27.549Z,43.03
2018-11-26T16:44:57.503Z,46.77
2018-11-26T16:47:27.552Z,47.23
2018-11-26T16:54:55.865Z,48.83
2018-11-26T16:57:25.680Z,48.33
2018-11-26T16:59:55.638Z,45.95
2018-11-26T17:02:25.701Z,43.42
2018-11-26T17:04:55.743Z,54.43
2018-11-26T17:07:25.898Z,49.37
2018-11-26T17:09:56.152Z,46.77
2018-11-26T17:12:26.100Z,47.10
2018-11-26T17:14:56.214Z,46.63
2018-11-26T17:17:26.357Z,47.50
2018-11-26T17:19:56.418Z,48.37
2018-11-26T17:22:26.157Z,41.90
2018-11-26T17:24:56.778Z,43.73
2018-11-26T17:27:27.833Z,45.35
2018-11-26T17:29:57.857Z,44.63
2018-11-26T17:32:27.873Z,45.87
2018-11-26T17:34:58.035Z,45.17
2018-11-26T17:37:28.351Z,47.35
2018-11-26T17:39:58.488Z,49.33
2018-11-26T17:42:28.456Z,49.30
2018-11-26T17:44:58.237Z,46.07
2018-11-26T17:47:28.234Z,48.87
2018-11-26T17:49:59.216Z,47.60
2018-11-26T17:52:30.447Z,47.95
2018-11-26T17:55:00.561Z,47.57
2018-11-26T17:57:30.490Z,49.47
2018-11-26T18:00:00.613Z,48.23
2018-11-26T18:02:30.695Z,46.93
2018-11-26T18:05:00.801Z,45.97
2018-11-26T18:07:31.010Z,46.47
2018-11-26T18:10:01.009Z,50.90
2018-11-26T18:12:31.084Z,40.83
2018-11-26T18:15:01.120Z,45.37
2018-11-26T18:17:31.170Z,46.50
2018-11-26T18:20:01.218Z,61.45
2018-11-26T18:22:31.502Z,51.58
2018-11-26T18:25:01.560Z,43.40
2018-11-26T18:27:32.118Z,42.20
2018-11-26T18:30:02.240Z,47.50
2018-11-26T18:32:32.259Z,43.80
2018-11-26T18:35:02.289Z,50.63
2018-11-26T18:37:32.063Z,45.70
2018-11-26T18:40:02.134Z,40.67
2018-11-26T18:42:32.114Z,39.93
2018-11-26T18:45:02.170Z,42.57
2018-11-26T18:47:32.023Z,46.80
2018-11-26T18:50:02.330Z,41.07
2018-11-26T18:52:32.512Z,41.60
2018-11-26T18:55:02.820Z,41.50
2018-11-26T18:57:33.593Z,38.63
2018-11-26T19:00:09.767Z,42.30
2018-11-26T19:02:39.957Z,37.10
2018-11-26T19:05:11.325Z,41.67
2018-11-26T19:07:41.637Z,37.73
2018-11-26T19:10:18.503Z,40.78
2018-11-26T19:12:56.681Z,41.95
2018-11-26T19:15:38.583Z,41.37
2018-11-26T19:18:25.923Z,37.83
2018-11-26T19:20:56.254Z,36.55
2018-11-26T19:23:26.295Z,37.78
2018-11-26T19:25:56.355Z,36.75
2018-11-26T19:28:26.591Z,38.70
2018-11-26T19:30:56.531Z,37.63
2018-11-26T19:33:26.429Z,37.97
2018-11-26T19:35:56.580Z,34.77
2018-11-26T19:38:26.664Z,35.03
2018-11-26T19:40:56.906Z,37.43
2018-11-26T19:43:27.088Z,52.17
2018-11-26T19:50:55.150Z,36.77
2018-11-26T19:53:25.183Z,33.13
2018-11-26T19:55:55.203Z,35.27
2018-11-26T19:58:25.387Z,34.37
2018-11-26T20:00:55.441Z,32.30
2018-11-26T20:03:29.777Z,36.57
2018-11-26T20:06:12.558Z,37.27
2018-11-26T20:08:44.295Z,34.50
2018-11-26T20:11:13.792Z,34.73
2018-11-26T20:13:43.847Z,33.48
2018-11-26T20:16:22.717Z,42.53
2018-11-26T20:18:52.991Z,37.47
2018-11-26T20:21:23.200Z,34.53
2018-11-26T20:23:53.785Z,36.30
2018-11-26T20:26:23.851Z,32.60
2018-11-26T20:28:56.888Z,33.98
2018-11-26T20:31:24.130Z,34.33
2018-11-26T20:33:54.617Z,32.73
2018-11-26T20:36:24.798Z,34.37
2018-11-26T20:38:54.637Z,36.10
2018-11-26T20:41:24.728Z,38.30
2018-11-26T20:43:54.801Z,35.43
2018-11-26T20:46:24.603Z,52.67
2018-11-26T20:48:54.408Z,51.87
2018-11-26T20:51:24.516Z,38.17
2018-11-26T20:53:54.742Z,38.80
2018-11-26T20:56:24.646Z,35.57
2018-11-26T20:58:54.644Z,38.50
2018-11-26T21:01:24.741Z,39.27
2018-11-26T21:03:55.170Z,36.10
2018-11-26T21:06:25.298Z,39.33
2018-11-26T21:08:56.233Z,40.50
2018-11-26T21:11:26.427Z,38.77
2018-11-26T21:13:56.564Z,39.07
2018-11-26T21:16:26.682Z,38.90
2018-11-26T21:18:56.562Z,37.83
2018-11-26T21:21:26.594Z,39.80
2018-11-26T21:23:56.578Z,44.73
2018-11-26T21:26:26.483Z,39.00
2018-11-26T21:28:56.563Z,39.95
2018-11-26T21:31:26.534Z,41.68
2018-11-26T21:33:56.798Z,39.53
2018-11-26T21:36:26.760Z,39.40
2018-11-26T21:38:56.939Z,41.57
2018-11-26T21:41:27.169Z,39.83
2018-11-26T21:43:57.832Z,42.85
2018-11-26T21:46:28.780Z,39.08
2018-11-26T21:48:58.594Z,42.17
2018-11-26T21:51:28.443Z,40.53
2018-11-26T21:53:58.453Z,41.43
2018-11-26T21:56:28.516Z,37.65
2018-11-26T21:58:58.517Z,41.13
2018-11-26T22:01:28.309Z,41.73
2018-11-26T22:03:58.300Z,41.73
2018-11-26T22:06:28.210Z,44.43
2018-11-26T22:08:58.110Z,39.87
2018-11-26T22:11:30.320Z,39.00
2018-11-26T22:13:57.915Z,39.07
2018-11-26T22:16:27.772Z,44.10
2018-11-26T22:18:57.702Z,39.87
2018-11-26T22:21:27.451Z,39.07
2018-11-26T22:23:57.386Z,38.70
2018-11-26T22:26:27.198Z,41.07
2018-11-26T22:28:57.093Z,41.60
2018-11-26T22:31:27.027Z,39.48
2018-11-26T22:33:57.166Z,43.90
2018-11-26T22:36:27.027Z,40.97
2018-11-26T22:38:56.913Z,42.33
2018-11-26T22:41:26.853Z,42.37
2018-11-26T22:43:57.813Z,42.53
2018-11-26T22:46:27.893Z,41.60
2018-11-26T22:48:58.267Z,41.10
2018-11-26T22:51:28.172Z,41.93
2018-11-26T22:53:57.920Z,43.57
2018-11-26T22:56:27.679Z,40.53
2018-11-26T22:58:57.623Z,40.97
2018-11-26T23:01:27.468Z,42.63
2018-11-26T23:03:57.258Z,41.40
2018-11-26T23:06:27.157Z,42.30
2018-11-26T23:08:57.073Z,39.40
2018-11-26T23:11:26.871Z,38.23
2018-11-26T23:13:56.962Z,40.73
2018-11-26T23:16:27.239Z,40.57
2018-11-26T23:18:56.490Z,38.00
2018-11-26T23:21:26.579Z,41.43
2018-11-26T23:23:56.604Z,41.55
2018-11-26T23:26:26.820Z,37.17
2018-11-26T23:28:56.748Z,38.60
2018-11-26T23:31:26.797Z,43.33
2018-11-26T23:33:56.703Z,40.50
2018-11-26T23:36:27.663Z,40.92
2018-11-26T23:38:57.525Z,45.50
2018-11-26T23:41:27.598Z,40.60
2018-11-26T23:43:57.731Z,41.67
2018-11-26T23:46:28.069Z,41.53
2018-11-26T23:48:58.275Z,41.23
2018-11-26T23:51:29.021Z,37.78
2018-11-26T23:53:59.016Z,40.40
2018-11-26T23:56:29.049Z,37.67
2018-11-26T23:58:59.140Z,36.33
